Time;durP1;ratioP1;P1;durP2;ratioP2;P2;SDS_P1;SDS_P2;PMS_P1;PMS_P2;Temp;Humidity;BMP_temperature;BMP_pressure;BME280_temperature;BME280_humidity;BME280_pressure;Samples;Min_cycle;Max_cycle;Signal;HPM_P1;HPM_P2
2021/07/26 00:01:34;;;;;;;5.53;3.33;;;;;;;;;;4963979;28;20569;-57
2021/07/26 00:04:02;;;;;;;6.22;3.45;;;;;;;;;;4970394;28;20400;-58
2021/07/26 00:06:31;;;;;;;4.30;3.05;;;;;;;;;;4963085;28;20138;-58
2021/07/26 00:08:59;;;;;;;5.22;3.38;;;;;;;;;;4971335;28;20098;-58
2021/07/26 00:11:28;;;;;;;7.35;3.47;;;;;;;;;;4957519;28;20550;-58
2021/07/26 00:13:57;;;;;;;8.50;3.78;;;;;;;;;;4967868;28;20057;-58
2021/07/26 00:16:25;;;;;;;5.75;3.83;;;;;;;;;;4960859;28;20089;-58
2021/07/26 00:18:53;;;;;;;5.80;3.72;;;;;;;;;;4962710;28;20069;-58
2021/07/26 00:21:22;;;;;;;3.83;3.30;;;;;;;;;;4970200;28;20125;-59
2021/07/26 00:23:50;;;;;;;5.07;3.67;;;;;;;;;;4966762;28;20047;-57
2021/07/26 00:26:19;;;;;;;7.15;4.15;;;;;;;;;;4963516;28;20133;-57
2021/07/26 00:28:48;;;;;;;5.20;3.45;;;;;;;;;;4964556;28;20055;-57
2021/07/26 00:31:17;;;;;;;8.82;3.95;;;;;;;;;;4967801;28;20047;-57
2021/07/26 00:34:06;;;;;;;5.90;3.78;;;;;;;;;;4959881;28;20592;-57
2021/07/26 00:36:35;;;;;;;5.03;3.33;;;;;;;;;;4949510;28;20055;-57
2021/07/26 00:39:04;;;;;;;6.93;3.85;;;;;;;;;;4968889;28;20664;-58
2021/07/26 00:41:32;;;;;;;7.70;4.00;;;;;;;;;;4966315;28;20057;-58
2021/07/26 00:44:01;;;;;;;5.35;3.67;;;;;;;;;;4965823;28;20055;-58
2021/07/26 00:46:30;;;;;;;6.60;3.70;;;;;;;;;;4966957;28;20054;-58
2021/07/26 00:49:00;;;;;;;9.02;3.58;;;;;;;;;;4967142;28;20043;-58
2021/07/26 00:51:28;;;;;;;7.22;4.55;;;;;;;;;;4968396;28;20046;-58
2021/07/26 00:53:57;;;;;;;6.28;3.83;;;;;;;;;;4968883;28;20558;-58
2021/07/26 00:56:25;;;;;;;7.78;4.28;;;;;;;;;;4963235;28;20134;-58
2021/07/26 00:58:53;;;;;;;7.72;3.92;;;;;;;;;;4971054;28;20053;-57
2021/07/26 01:01:23;;;;;;;6.78;4.00;;;;;;;;;;4964515;28;20447;-58
2021/07/26 01:03:52;;;;;;;5.55;4.00;;;;;;;;;;4964763;28;20402;-58
2021/07/26 01:06:20;;;;;;;8.63;4.10;;;;;;;;;;4970331;28;20138;-57
2021/07/26 01:08:49;;;;;;;7.57;3.83;;;;;;;;;;4962769;28;20061;-57
2021/07/26 01:11:17;;;;;;;7.78;4.40;;;;;;;;;;4967826;28;20057;-57
2021/07/26 01:13:45;;;;;;;5.75;3.88;;;;;;;;;;4965077;28;20075;-57
2021/07/26 01:16:14;;;;;;;10.20;4.22;;;;;;;;;;4969727;28;20050;-57
2021/07/26 01:18:43;;;;;;;5.63;3.95;;;;;;;;;;4971441;28;20073;-57
2021/07/26 01:21:13;;;;;;;9.45;4.13;;;;;;;;;;4966178;28;20156;-59
2021/07/26 01:23:43;;;;;;;5.63;4.00;;;;;;;;;;4962158;28;20070;-57
2021/07/26 01:26:12;;;;;;;5.15;3.70;;;;;;;;;;4965325;28;20047;-57
2021/07/26 01:28:42;;;;;;;6.47;4.10;;;;;;;;;;4966570;28;20089;-57
2021/07/26 01:31:11;;;;;;;7.97;4.25;;;;;;;;;;4962651;28;20089;-58
2021/07/26 01:33:39;;;;;;;7.03;4.05;;;;;;;;;;4962316;28;20121;-57
2021/07/26 01:36:08;;;;;;;6.82;4.00;;;;;;;;;;4963768;28;20051;-58
2021/07/26 01:38:37;;;;;;;6.15;4.05;;;;;;;;;;4954074;28;20062;-57
2021/07/26 01:41:07;;;;;;;6.00;3.97;;;;;;;;;;4966891;28;20580;-58
2021/07/26 01:43:39;;;;;;;6.40;4.63;;;;;;;;;;4968007;28;20054;-58
2021/07/26 01:46:11;;;;;;;5.57;3.78;;;;;;;;;;4969180;28;20046;-59
2021/07/26 01:48:43;;;;;;;7.63;4.00;;;;;;;;;;4959546;28;20383;-59
2021/07/26 01:51:13;;;;;;;7.93;4.30;;;;;;;;;;4963270;28;20055;-57
2021/07/26 01:53:44;;;;;;;5.70;3.70;;;;;;;;;;4959275;28;20065;-58
2021/07/26 01:56:12;;;;;;;5.78;4.05;;;;;;;;;;4963658;28;20157;-58
2021/07/26 01:58:42;;;;;;;7.32;4.28;;;;;;;;;;4970591;28;20051;-58
2021/07/26 02:01:10;;;;;;;5.95;4.20;;;;;;;;;;4964463;28;20137;-57
2021/07/26 02:03:39;;;;;;;5.40;3.88;;;;;;;;;;4952333;28;20486;-58
2021/07/26 02:06:07;;;;;;;7.40;3.80;;;;;;;;;;4951208;29;20530;-58
2021/07/26 02:08:35;;;;;;;9.38;4.78;;;;;;;;;;4951124;29;20047;-58
2021/07/26 02:11:05;;;;;;;5.53;4.00;;;;;;;;;;4951659;29;20571;-58
2021/07/26 02:13:35;;;;;;;7.70;3.97;;;;;;;;;;4950802;29;20126;-57
2021/07/26 02:16:04;;;;;;;8.52;4.60;;;;;;;;;;4950013;29;20536;-58
2021/07/26 02:18:32;;;;;;;6.13;4.38;;;;;;;;;;4943764;29;20494;-58
2021/07/26 02:21:00;;;;;;;9.30;4.57;;;;;;;;;;4952158;29;20122;-58
2021/07/26 02:23:29;;;;;;;5.88;4.07;;;;;;;;;;4952477;29;20074;-58
2021/07/26 02:25:57;;;;;;;10.50;4.28;;;;;;;;;;4951357;29;20441;-57
2021/07/26 02:28:27;;;;;;;7.18;4.32;;;;;;;;;;4950961;29;20401;-58
2021/07/26 02:30:55;;;;;;;8.10;5.18;;;;;;;;;;4950919;29;20051;-58
2021/07/26 02:33:23;;;;;;;9.57;4.63;;;;;;;;;;4953871;28;20075;-59
2021/07/26 02:35:51;;;;;;;8.80;4.53;;;;;;;;;;4953502;29;20047;-58
2021/07/26 02:38:20;;;;;;;7.55;4.65;;;;;;;;;;4955969;28;20130;-57
2021/07/26 02:40:48;;;;;;;8.82;4.68;;;;;;;;;;4953753;29;20554;-58
2021/07/26 02:43:16;;;;;;;6.82;4.10;;;;;;;;;;4955531;29;20039;-58
2021/07/26 02:45:47;;;;;;;5.55;3.80;;;;;;;;;;4954271;29;20075;-58
2021/07/26 02:48:15;;;;;;;8.95;4.53;;;;;;;;;;4954882;29;20127;-57
2021/07/26 02:50:44;;;;;;;7.28;3.95;;;;;;;;;;4952847;29;20047;-58
2021/07/26 02:53:16;;;;;;;8.02;4.75;;;;;;;;;;4945935;29;20050;-56
2021/07/26 02:55:45;;;;;;;8.25;4.40;;;;;;;;;;4954574;29;20484;-58
2021/07/26 02:58:14;;;;;;;9.25;4.55;;;;;;;;;;4953456;28;20057;-58
2021/07/26 03:00:43;;;;;;;6.85;4.47;;;;;;;;;;4953795;29;20089;-58
2021/07/26 03:03:13;;;;;;;6.45;4.53;;;;;;;;;;4949504;28;20432;-59
2021/07/26 03:05:41;;;;;;;5.07;4.07;;;;;;;;;;4945530;29;20047;-58
2021/07/26 03:08:09;;;;;;;6.30;3.75;;;;;;;;;;4953903;29;20141;-57
2021/07/26 03:10:37;;;;;;;8.32;4.03;;;;;;;;;;4948886;29;20074;-57
2021/07/26 03:13:06;;;;;;;7.10;4.40;;;;;;;;;;4952883;29;20043;-57
2021/07/26 03:15:36;;;;;;;5.75;4.20;;;;;;;;;;4941821;29;20581;-57
2021/07/26 03:18:04;;;;;;;7.57;4.15;;;;;;;;;;4951431;29;20062;-58
2021/07/26 03:20:34;;;;;;;5.45;3.97;;;;;;;;;;4950546;29;20049;-57
2021/07/26 03:23:03;;;;;;;11.35;4.25;;;;;;;;;;4949605;29;20507;-57
2021/07/26 03:25:33;;;;;;;6.30;4.40;;;;;;;;;;4946941;29;20049;-58
2021/07/26 03:28:03;;;;;;;6.35;3.85;;;;;;;;;;4949182;29;20321;-58
2021/07/26 03:30:38;;;;;;;6.12;3.78;;;;;;;;;;486650;28;10023364;-58
2021/07/26 03:33:06;;;;;;;6.22;4.13;;;;;;;;;;4936099;29;20587;-58
2021/07/26 03:35:36;;;;;;;6.38;3.90;;;;;;;;;;4945064;29;20097;-58
2021/07/26 03:38:05;;;;;;;10.07;4.93;;;;;;;;;;4952880;28;20466;-59
2021/07/26 03:40:33;;;;;;;10.18;4.20;;;;;;;;;;4941857;29;20157;-58
2021/07/26 03:43:02;;;;;;;7.72;4.10;;;;;;;;;;4946768;29;20050;-58
2021/07/26 03:45:30;;;;;;;7.55;4.20;;;;;;;;;;4946933;29;20073;-58
2021/07/26 03:48:00;;;;;;;5.47;3.75;;;;;;;;;;4953867;29;20126;-59
2021/07/26 03:50:28;;;;;;;5.63;3.90;;;;;;;;;;4953217;29;20458;-58
2021/07/26 03:52:59;;;;;;;5.80;4.05;;;;;;;;;;4944752;29;20055;-58
2021/07/26 03:55:28;;;;;;;5.53;3.92;;;;;;;;;;4946478;29;20492;-58
2021/07/26 03:57:58;;;;;;;6.18;3.88;;;;;;;;;;4949370;29;20050;-58
2021/07/26 04:00:27;;;;;;;6.47;4.25;;;;;;;;;;4946354;29;20055;-58
2021/07/26 04:03:00;;;;;;;4.85;3.40;;;;;;;;;;4954161;28;20508;-58
2021/07/26 04:05:32;;;;;;;8.68;4.10;;;;;;;;;;4969368;28;20074;-58
2021/07/26 04:08:05;;;;;;;8.13;4.35;;;;;;;;;;4957425;28;20059;-59
2021/07/26 04:10:34;;;;;;;5.35;3.53;;;;;;;;;;4965582;28;20376;-58
2021/07/26 04:13:02;;;;;;;6.07;3.50;;;;;;;;;;4964767;28;20459;-58
2021/07/26 04:15:31;;;;;;;5.88;3.63;;;;;;;;;;4970798;28;20134;-58
2021/07/26 04:17:59;;;;;;;8.23;3.65;;;;;;;;;;4968332;28;20105;-59
2021/07/26 04:20:28;;;;;;;4.93;3.20;;;;;;;;;;4970868;28;20558;-59
2021/07/26 04:22:57;;;;;;;5.22;3.75;;;;;;;;;;4971918;28;20060;-58
2021/07/26 04:25:27;;;;;;;10.68;3.80;;;;;;;;;;4968003;28;20494;-57
2021/07/26 04:27:55;;;;;;;5.75;2.97;;;;;;;;;;4968514;28;20166;-58
2021/07/26 04:30:23;;;;;;;5.70;3.85;;;;;;;;;;4967517;28;20529;-58
2021/07/26 04:32:51;;;;;;;5.68;3.83;;;;;;;;;;4968256;28;20126;-59
2021/07/26 04:35:20;;;;;;;6.35;3.85;;;;;;;;;;4956554;28;20146;-59
2021/07/26 04:37:48;;;;;;;6.22;3.22;;;;;;;;;;4957817;28;20134;-59
2021/07/26 04:40:16;;;;;;;5.45;3.40;;;;;;;;;;4967490;28;20495;-59
2021/07/26 04:42:46;;;;;;;5.93;4.07;;;;;;;;;;4968028;28;20065;-58
2021/07/26 04:45:14;;;;;;;5.95;3.90;;;;;;;;;;4953563;28;20055;-58
2021/07/26 04:47:43;;;;;;;10.85;4.22;;;;;;;;;;4969082;28;20064;-57
2021/07/26 04:50:12;;;;;;;5.53;3.72;;;;;;;;;;4969396;28;20054;-57
2021/07/26 04:52:40;;;;;;;7.47;3.50;;;;;;;;;;4968360;28;20165;-57
2021/07/26 04:55:09;;;;;;;5.20;3.58;;;;;;;;;;4968801;28;20424;-57
2021/07/26 04:57:38;;;;;;;7.55;3.55;;;;;;;;;;4964923;28;20078;-57
2021/07/26 05:00:08;;;;;;;7.05;3.95;;;;;;;;;;4956888;28;20058;-58
2021/07/26 05:02:37;;;;;;;6.20;3.60;;;;;;;;;;4956787;28;20509;-58
2021/07/26 05:05:06;;;;;;;5.25;3.40;;;;;;;;;;4960527;28;20799;-58
2021/07/26 05:07:34;;;;;;;6.05;3.65;;;;;;;;;;4969148;28;20511;-57
2021/07/26 05:10:03;;;;;;;6.20;3.65;;;;;;;;;;4969444;28;20042;-57
2021/07/26 05:12:31;;;;;;;5.53;3.70;;;;;;;;;;4968640;28;20060;-57
2021/07/26 05:15:00;;;;;;;5.45;3.47;;;;;;;;;;4964517;28;20047;-57
2021/07/26 05:17:29;;;;;;;9.98;4.13;;;;;;;;;;4950095;28;20051;-58
2021/07/26 05:19:58;;;;;;;5.80;4.00;;;;;;;;;;4955255;28;20058;-59
2021/07/26 05:22:26;;;;;;;5.25;3.80;;;;;;;;;;4968737;28;20051;-57
2021/07/26 05:24:55;;;;;;;6.53;3.40;;;;;;;;;;4963094;28;20072;-57
2021/07/26 05:27:28;;;;;;;8.50;3.03;;;;;;;;;;4968190;28;20068;-58
2021/07/26 05:29:56;;;;;;;10.07;4.32;;;;;;;;;;4967840;28;20521;-58
2021/07/26 05:32:25;;;;;;;6.18;3.45;;;;;;;;;;4964469;28;20055;-57
2021/07/26 05:34:55;;;;;;;5.63;4.00;;;;;;;;;;4959487;28;20440;-58
2021/07/26 05:37:23;;;;;;;6.40;3.33;;;;;;;;;;4952244;28;20046;-59
2021/07/26 05:39:52;;;;;;;7.15;3.95;;;;;;;;;;4961485;28;20589;-57
2021/07/26 05:42:20;;;;;;;8.40;4.65;;;;;;;;;;4957715;28;20055;-57
2021/07/26 05:44:49;;;;;;;7.63;3.65;;;;;;;;;;4965224;28;20054;-57
2021/07/26 05:47:17;;;;;;;5.95;3.53;;;;;;;;;;4968355;28;20058;-58
2021/07/26 05:49:45;;;;;;;6.18;4.00;;;;;;;;;;4965053;28;20470;-58
2021/07/26 05:52:16;;;;;;;6.90;3.88;;;;;;;;;;4958868;28;21507;-58
2021/07/26 05:54:45;;;;;;;7.03;4.05;;;;;;;;;;4953051;28;20224;-59
2021/07/26 05:57:15;;;;;;;5.90;3.53;;;;;;;;;;4968681;28;20062;-58
2021/07/26 05:59:44;;;;;;;9.07;5.00;;;;;;;;;;4961723;28;20101;-60
2021/07/26 06:02:12;;;;;;;7.82;4.57;;;;;;;;;;4965959;28;20053;-59
2021/07/26 06:04:41;;;;;;;5.97;3.83;;;;;;;;;;4967164;28;20058;-57
2021/07/26 06:07:10;;;;;;;6.40;4.25;;;;;;;;;;4967583;28;20406;-58
2021/07/26 06:09:40;;;;;;;7.40;4.30;;;;;;;;;;4969197;28;20146;-57
2021/07/26 06:12:08;;;;;;;7.95;3.90;;;;;;;;;;4969344;28;20138;-59
2021/07/26 06:14:37;;;;;;;6.85;4.22;;;;;;;;;;4958379;28;20055;-57
2021/07/26 06:17:07;;;;;;;13.70;4.30;;;;;;;;;;4956749;28;20050;-58
2021/07/26 06:19:35;;;;;;;5.38;3.45;;;;;;;;;;4955477;28;20065;-57
2021/07/26 06:22:04;;;;;;;7.55;3.70;;;;;;;;;;4968851;28;20055;-59
2021/07/26 06:24:33;;;;;;;8.73;4.20;;;;;;;;;;4964597;28;20154;-57
2021/07/26 06:27:03;;;;;;;8.93;4.60;;;;;;;;;;4970859;28;20154;-57
2021/07/26 06:29:31;;;;;;;5.25;3.88;;;;;;;;;;4961450;28;20082;-58
2021/07/26 06:32:00;;;;;;;6.50;4.43;;;;;;;;;;4956642;28;20148;-58
2021/07/26 06:34:29;;;;;;;6.53;4.32;;;;;;;;;;4969041;28;20057;-58
2021/07/26 06:36:58;;;;;;;5.68;3.83;;;;;;;;;;4961859;28;20048;-58
2021/07/26 06:39:26;;;;;;;8.90;4.13;;;;;;;;;;4972917;28;20137;-57
2021/07/26 06:41:55;;;;;;;7.70;4.30;;;;;;;;;;4979452;28;20507;-58
2021/07/26 06:44:24;;;;;;;8.63;4.93;;;;;;;;;;4967778;28;20050;-58
2021/07/26 06:46:52;;;;;;;8.15;4.28;;;;;;;;;;4965776;28;20047;-57
2021/07/26 06:49:21;;;;;;;7.28;4.22;;;;;;;;;;4968270;28;20129;-58
2021/07/26 06:51:49;;;;;;;8.65;4.30;;;;;;;;;;4965944;28;20114;-58
2021/07/26 06:54:18;;;;;;;8.32;4.13;;;;;;;;;;4959211;28;20491;-59
2021/07/26 06:56:46;;;;;;;7.10;3.78;;;;;;;;;;4957231;28;20046;-58
2021/07/26 06:59:15;;;;;;;6.93;3.58;;;;;;;;;;4969867;28;20512;-58
2021/07/26 07:01:44;;;;;;;11.27;3.63;;;;;;;;;;4970358;28;20169;-57
2021/07/26 07:04:13;;;;;;;6.38;3.83;;;;;;;;;;4948976;28;20082;-58
2021/07/26 07:06:42;;;;;;;6.55;3.80;;;;;;;;;;4949818;28;20562;-57
2021/07/26 07:09:10;;;;;;;9.60;4.22;;;;;;;;;;4954642;28;20074;-59
2021/07/26 07:11:38;;;;;;;9.40;4.32;;;;;;;;;;4970941;28;20047;-59
2021/07/26 07:14:07;;;;;;;8.35;4.30;;;;;;;;;;4951730;28;20745;-58
2021/07/26 07:16:36;;;;;;;6.22;3.45;;;;;;;;;;4951362;29;20043;-58
2021/07/26 07:19:06;;;;;;;5.90;3.45;;;;;;;;;;4941996;29;20047;-58
2021/07/26 07:21:35;;;;;;;5.55;3.90;;;;;;;;;;4932924;29;20372;-57
2021/07/26 07:24:04;;;;;;;6.70;3.33;;;;;;;;;;4936088;29;20057;-57
2021/07/26 07:26:34;;;;;;;4.82;2.83;;;;;;;;;;4939643;28;20069;-58
2021/07/26 07:29:03;;;;;;;6.63;3.70;;;;;;;;;;4946049;28;20055;-57
2021/07/26 07:31:36;;;;;;;6.47;3.22;;;;;;;;;;4948136;28;20057;-58
2021/07/26 07:34:05;;;;;;;7.88;3.80;;;;;;;;;;4940557;29;20051;-58
2021/07/26 07:36:35;;;;;;;7.88;3.75;;;;;;;;;;4948894;28;20066;-57
2021/07/26 07:39:04;;;;;;;10.80;4.03;;;;;;;;;;4950114;29;20607;-58
2021/07/26 07:41:34;;;;;;;7.13;3.58;;;;;;;;;;4942729;29;20055;-58
2021/07/26 07:44:03;;;;;;;6.20;3.80;;;;;;;;;;4935554;29;20067;-58
2021/07/26 07:46:31;;;;;;;6.40;4.25;;;;;;;;;;4949112;28;20047;-57
2021/07/26 07:49:00;;;;;;;5.75;3.17;;;;;;;;;;4948516;28;20118;-59
2021/07/26 07:51:28;;;;;;;4.90;3.10;;;;;;;;;;4949602;28;20129;-57
2021/07/26 07:54:00;;;;;;;7.90;3.97;;;;;;;;;;4944098;28;20083;-59
2021/07/26 07:56:28;;;;;;;5.60;3.50;;;;;;;;;;4942787;29;20055;-57
2021/07/26 07:59:00;;;;;;;5.00;3.05;;;;;;;;;;4947421;28;20448;-58
2021/07/26 08:01:33;;;;;;;5.95;3.58;;;;;;;;;;4942006;29;20212;-59
2021/07/26 08:04:02;;;;;;;5.15;3.22;;;;;;;;;;4959572;28;20569;-58
2021/07/26 08:06:30;;;;;;;5.80;3.17;;;;;;;;;;4959601;28;20059;-58
2021/07/26 08:09:00;;;;;;;6.35;3.17;;;;;;;;;;4958711;28;20082;-58
2021/07/26 08:11:29;;;;;;;5.97;3.03;;;;;;;;;;4968901;28;20061;-58
2021/07/26 08:13:57;;;;;;;5.80;3.13;;;;;;;;;;4963394;28;20105;-59
2021/07/26 08:16:26;;;;;;;5.80;3.22;;;;;;;;;;4965789;28;20070;-58
2021/07/26 08:18:59;;;;;;;6.07;3.13;;;;;;;;;;4967448;28;20407;-58
2021/07/26 08:21:29;;;;;;;4.30;3.08;;;;;;;;;;4968450;28;20133;-58
2021/07/26 08:23:59;;;;;;;4.72;3.03;;;;;;;;;;4960457;28;20090;-58
2021/07/26 08:26:29;;;;;;;4.53;3.10;;;;;;;;;;4949504;28;20487;-58
2021/07/26 08:28:58;;;;;;;4.45;2.67;;;;;;;;;;4963193;28;20482;-57
2021/07/26 08:31:27;;;;;;;7.50;2.92;;;;;;;;;;4966600;28;20059;-58
2021/07/26 08:33:55;;;;;;;5.10;3.15;;;;;;;;;;4953825;28;20443;-58
2021/07/26 08:36:23;;;;;;;4.45;2.75;;;;;;;;;;4969175;28;20507;-59
2021/07/26 08:38:52;;;;;;;6.03;2.80;;;;;;;;;;4964588;28;20055;-58
2021/07/26 08:41:21;;;;;;;5.63;2.90;;;;;;;;;;4959266;28;20050;-58
2021/07/26 08:43:51;;;;;;;5.25;2.67;;;;;;;;;;4953710;28;20059;-58
2021/07/26 08:46:21;;;;;;;4.40;2.95;;;;;;;;;;4965439;28;20058;-58
2021/07/26 08:48:50;;;;;;;3.83;2.70;;;;;;;;;;4967368;28;20051;-58
2021/07/26 08:51:21;;;;;;;5.00;3.05;;;;;;;;;;4963162;28;20114;-59
2021/07/26 08:53:50;;;;;;;6.53;2.85;;;;;;;;;;4956846;28;20542;-57
2021/07/26 08:56:19;;;;;;;4.47;3.20;;;;;;;;;;4960591;28;20054;-57
2021/07/26 08:58:52;;;;;;;5.43;3.03;;;;;;;;;;4964868;28;20058;-58
2021/07/26 09:01:21;;;;;;;4.80;2.97;;;;;;;;;;4968224;28;20156;-58
2021/07/26 09:03:52;;;;;;;4.18;3.00;;;;;;;;;;4954866;28;20143;-58
2021/07/26 09:06:20;;;;;;;6.55;3.17;;;;;;;;;;4947592;29;20086;-57
2021/07/26 09:08:49;;;;;;;5.20;3.42;;;;;;;;;;4948552;28;20417;-57
2021/07/26 09:11:18;;;;;;;3.85;2.60;;;;;;;;;;4947797;29;20083;-57
2021/07/26 09:13:46;;;;;;;5.45;3.03;;;;;;;;;;4945504;29;20047;-58
2021/07/26 09:16:18;;;;;;;7.05;3.50;;;;;;;;;;4949133;28;20055;-58
2021/07/26 09:18:47;;;;;;;6.63;2.90;;;;;;;;;;4949016;29;20459;-58
2021/07/26 09:21:15;;;;;;;7.53;3.20;;;;;;;;;;4949627;28;20515;-59
2021/07/26 09:24:04;;;;;;;4.97;2.85;;;;;;;;;;4949990;29;20170;-59
2021/07/26 09:26:32;;;;;;;6.55;2.88;;;;;;;;;;4945007;29;20054;-58
2021/07/26 09:29:01;;;;;;;6.32;3.00;;;;;;;;;;4947356;29;20083;-58
2021/07/26 09:31:31;;;;;;;4.25;2.65;;;;;;;;;;4949309;29;20046;-58
2021/07/26 09:34:22;;;;;;;5.82;3.25;;;;;;;;;;4946456;28;20131;-58
2021/07/26 09:36:51;;;;;;;4.38;3.22;;;;;;;;;;4949307;29;20118;-58
2021/07/26 09:39:25;;;;;;;5.45;3.28;;;;;;;;;;4948339;29;20047;-57
2021/07/26 09:41:55;;;;;;;7.15;3.50;;;;;;;;;;4948667;29;20092;-57
2021/07/26 09:44:24;;;;;;;5.25;2.83;;;;;;;;;;4945379;28;20492;-58
2021/07/26 09:46:54;;;;;;;4.25;2.95;;;;;;;;;;4946886;29;20055;-59
2021/07/26 09:49:23;;;;;;;7.13;3.38;;;;;;;;;;4948775;28;20063;-58
2021/07/26 09:52:04;;;;;;;4.93;3.00;;;;;;;;;;4948265;29;20512;-58
2021/07/26 09:54:45;;;;;;;8.60;2.78;;;;;;;;;;4946410;28;20500;-58
2021/07/26 09:57:18;;;;;;;3.88;2.55;;;;;;;;;;4948469;29;20083;-57
2021/07/26 09:59:47;;;;;;;8.18;3.60;;;;;;;;;;4948127;29;20095;-57
2021/07/26 10:02:18;;;;;;;5.22;2.92;;;;;;;;;;4948086;28;20051;-57
2021/07/26 10:04:48;;;;;;;3.95;2.55;;;;;;;;;;4946811;29;20059;-58
2021/07/26 10:07:17;;;;;;;4.57;2.63;;;;;;;;;;4947120;29;20094;-59
2021/07/26 10:09:46;;;;;;;4.50;2.85;;;;;;;;;;4948489;29;20055;-57
2021/07/26 10:12:16;;;;;;;4.32;2.55;;;;;;;;;;4947621;28;20070;-58
2021/07/26 10:14:47;;;;;;;4.20;2.70;;;;;;;;;;4942063;29;20543;-59
2021/07/26 10:17:17;;;;;;;5.93;3.00;;;;;;;;;;4948161;29;20114;-58
2021/07/26 10:19:47;;;;;;;4.85;3.00;;;;;;;;;;4946071;29;20134;-58
2021/07/26 10:22:16;;;;;;;4.85;3.05;;;;;;;;;;4948951;29;20047;-57
2021/07/26 10:24:47;;;;;;;4.47;2.67;;;;;;;;;;4948973;28;20063;-58
2021/07/26 10:27:20;;;;;;;3.72;2.83;;;;;;;;;;4949100;29;20086;-58
2021/07/26 10:29:52;;;;;;;7.03;3.10;;;;;;;;;;4947061;28;20055;-58
2021/07/26 10:32:35;;;;;;;7.47;3.50;;;;;;;;;;4950034;29;20427;-58
2021/07/26 10:35:06;;;;;;;4.68;3.10;;;;;;;;;;4948242;29;20043;-59
2021/07/26 10:37:55;;;;;;;3.53;2.70;;;;;;;;;;4946751;28;20051;-57
2021/07/26 10:40:24;;;;;;;3.78;2.72;;;;;;;;;;4945870;29;20098;-58
2021/07/26 10:42:53;;;;;;;3.83;3.03;;;;;;;;;;4950432;28;20333;-57
2021/07/26 10:45:40;;;;;;;4.55;2.38;;;;;;;;;;4948483;28;20536;-58
2021/07/26 10:48:28;;;;;;;4.10;2.80;;;;;;;;;;4948356;28;20141;-58
2021/07/26 10:50:59;;;;;;;4.65;2.90;;;;;;;;;;4933930;29;20407;-59
2021/07/26 10:53:46;;;;;;;3.90;2.53;;;;;;;;;;4949482;28;20138;-59
2021/07/26 10:56:16;;;;;;;4.28;2.78;;;;;;;;;;4934386;28;20079;-58
2021/07/26 10:59:03;;;;;;;4.28;2.72;;;;;;;;;;4948077;28;20057;-58
2021/07/26 11:01:41;;;;;;;4.35;2.85;;;;;;;;;;4944281;29;20130;-59
2021/07/26 11:04:28;;;;;;;3.78;2.47;;;;;;;;;;4944206;28;20134;-57
2021/07/26 11:07:05;;;;;;;4.10;2.70;;;;;;;;;;4936602;29;20157;-58
2021/07/26 11:09:40;;;;;;;5.55;2.88;;;;;;;;;;4948874;29;20055;-63
2021/07/26 11:12:08;;;;;;;4.10;2.42;;;;;;;;;;4937994;29;20551;-58
2021/07/26 11:14:37;;;;;;;5.05;2.90;;;;;;;;;;4933906;29;20478;-56
2021/07/26 11:17:07;;;;;;;3.38;2.38;;;;;;;;;;4919686;29;20544;-58
2021/07/26 11:19:36;;;;;;;3.88;2.50;;;;;;;;;;4918599;29;20075;-58
2021/07/26 11:22:07;;;;;;;3.95;2.67;;;;;;;;;;4911742;29;20152;-58
2021/07/26 11:24:45;;;;;;;4.85;2.60;;;;;;;;;;4916317;29;20043;-58
2021/07/26 11:27:14;;;;;;;5.45;2.83;;;;;;;;;;4941572;29;20097;-57
2021/07/26 11:29:44;;;;;;;5.43;2.90;;;;;;;;;;4942253;29;20518;-57
2021/07/26 11:32:19;;;;;;;4.28;2.65;;;;;;;;;;4946481;29;20118;-58
2021/07/26 11:34:47;;;;;;;;;;;;;;;;;;4948733;28;20404;-58
2021/07/26 11:37:17;;;;;;;3.25;2.53;;;;;;;;;;4946837;28;20045;-57
2021/07/26 11:39:49;;;;;;;5.25;2.97;;;;;;;;;;4942159;28;20465;-58
2021/07/26 11:42:18;;;;;;;5.72;2.90;;;;;;;;;;4942593;29;20043;-58
2021/07/26 11:44:47;;;;;;;6.72;3.10;;;;;;;;;;4939296;29;20119;-58
2021/07/26 11:47:16;;;;;;;5.07;2.85;;;;;;;;;;4945675;28;20074;-58
2021/07/26 11:49:56;;;;;;;5.03;2.97;;;;;;;;;;4933986;29;20456;-57
2021/07/26 11:52:26;;;;;;;3.50;2.67;;;;;;;;;;4940719;29;20535;-58
2021/07/26 11:54:55;;;;;;;4.85;2.90;;;;;;;;;;4946320;28;20107;-58
2021/07/26 11:57:24;;;;;;;3.85;2.83;;;;;;;;;;4945712;29;20118;-58
2021/07/26 11:59:53;;;;;;;3.75;2.80;;;;;;;;;;4943032;29;20122;-58
2021/07/26 12:02:27;;;;;;;6.05;2.80;;;;;;;;;;4944651;28;20059;-58
2021/07/26 12:04:57;;;;;;;;;;;;;;;;;;4944418;28;20051;-57
2021/07/26 12:07:42;;;;;;;4.63;2.95;;;;;;;;;;4937132;28;19933;-57
2021/07/26 12:10:11;;;;;;;3.85;2.78;;;;;;;;;;4941286;28;20085;-57
2021/07/26 12:12:40;;;;;;;4.30;2.65;;;;;;;;;;4941968;28;20106;-57
2021/07/26 12:15:26;;;;;;;6.28;3.13;;;;;;;;;;4940697;28;20052;-57
2021/07/26 12:18:05;;;;;;;4.70;2.90;;;;;;;;;;4943029;28;20055;-57
2021/07/26 12:20:34;;;;;;;3.15;2.50;;;;;;;;;;4944285;28;20051;-57
2021/07/26 12:23:20;;;;;;;5.07;2.90;;;;;;;;;;4947625;28;20052;-58
2021/07/26 12:25:54;;;;;;;4.03;3.13;;;;;;;;;;4944512;28;20055;-57
2021/07/26 12:28:24;;;;;;;4.25;2.67;;;;;;;;;;4944486;28;20143;-57
2021/07/26 12:30:53;;;;;;;5.00;2.85;;;;;;;;;;4945675;28;20110;-57
2021/07/26 12:33:28;;;;;;;5.70;3.30;;;;;;;;;;4948033;28;20078;-58
2021/07/26 12:36:12;;;;;;;4.22;2.85;;;;;;;;;;4947264;28;20554;-58
2021/07/26 12:38:41;;;;;;;4.78;3.28;;;;;;;;;;4943181;28;20087;-59
2021/07/26 12:41:12;;;;;;;4.97;3.15;;;;;;;;;;4945125;28;20059;-57
2021/07/26 12:43:43;;;;;;;4.85;3.10;;;;;;;;;;4941563;28;20052;-58
2021/07/26 12:46:11;;;;;;;4.85;3.10;;;;;;;;;;4944427;28;20412;-58
2021/07/26 12:48:41;;;;;;;5.00;2.85;;;;;;;;;;4943233;28;20054;-57
2021/07/26 12:51:10;;;;;;;3.53;2.80;;;;;;;;;;4946810;28;20058;-58
2021/07/26 12:53:38;;;;;;;3.88;2.97;;;;;;;;;;4944216;28;20427;-58
2021/07/26 12:56:07;;;;;;;4.18;3.28;;;;;;;;;;4943599;28;20055;-58
2021/07/26 12:58:37;;;;;;;4.68;3.20;;;;;;;;;;4944814;28;20523;-58
2021/07/26 13:01:05;;;;;;;4.65;2.67;;;;;;;;;;4942278;28;20365;-58
2021/07/26 13:03:34;;;;;;;3.75;2.67;;;;;;;;;;4956400;28;20062;-59
2021/07/26 13:06:02;;;;;;;3.70;2.58;;;;;;;;;;4962672;28;20054;-58
2021/07/26 13:08:30;;;;;;;3.47;2.38;;;;;;;;;;4960411;28;20533;-59
2021/07/26 13:10:59;;;;;;;3.80;2.63;;;;;;;;;;4960467;28;20534;-59
2021/07/26 13:13:27;;;;;;;3.92;2.55;;;;;;;;;;4960245;28;20054;-59
2021/07/26 13:15:57;;;;;;;4.60;2.40;;;;;;;;;;4963494;28;20169;-59
2021/07/26 13:18:26;;;;;;;6.25;3.00;;;;;;;;;;4965672;28;20088;-58
2021/07/26 13:20:55;;;;;;;4.55;3.15;;;;;;;;;;4961528;28;20050;-58
2021/07/26 13:23:23;;;;;;;4.00;3.03;;;;;;;;;;4958464;28;20063;-58
2021/07/26 13:25:51;;;;;;;5.78;2.78;;;;;;;;;;4962010;28;20106;-59
2021/07/26 13:28:20;;;;;;;3.40;2.78;;;;;;;;;;4963611;28;20054;-59
2021/07/26 13:30:49;;;;;;;5.07;3.10;;;;;;;;;;4959979;28;20054;-59
2021/07/26 13:33:19;;;;;;;4.35;3.28;;;;;;;;;;4960337;28;20054;-58
2021/07/26 13:35:48;;;;;;;4.47;2.85;;;;;;;;;;4965303;28;20415;-58
2021/07/26 13:38:17;;;;;;;4.97;2.75;;;;;;;;;;4969421;28;20083;-58
2021/07/26 13:40:45;;;;;;;6.03;2.80;;;;;;;;;;4963600;28;20450;-58
2021/07/26 13:43:14;;;;;;;4.30;2.67;;;;;;;;;;4967181;28;20051;-58
2021/07/26 13:45:42;;;;;;;4.38;3.28;;;;;;;;;;4961250;28;20494;-59
2021/07/26 13:48:11;;;;;;;4.13;2.80;;;;;;;;;;4952756;28;20376;-58
2021/07/26 13:50:39;;;;;;;5.53;2.58;;;;;;;;;;4964404;28;20306;-58
2021/07/26 13:53:08;;;;;;;3.72;2.75;;;;;;;;;;4955664;28;20051;-57
2021/07/26 13:55:36;;;;;;;5.05;2.60;;;;;;;;;;4964942;28;20055;-57
2021/07/26 13:58:05;;;;;;;4.60;2.78;;;;;;;;;;4966836;28;20141;-58
2021/07/26 14:00:33;;;;;;;4.72;3.05;;;;;;;;;;4954525;28;20150;-58
2021/07/26 14:03:02;;;;;;;7.28;3.30;;;;;;;;;;4954520;28;20059;-58
2021/07/26 14:05:31;;;;;;;6.30;2.72;;;;;;;;;;4938969;28;20166;-58
2021/07/26 14:08:01;;;;;;;3.83;2.53;;;;;;;;;;4948212;29;20313;-58
2021/07/26 14:10:30;;;;;;;4.82;3.30;;;;;;;;;;4937693;28;20055;-58
2021/07/26 14:12:59;;;;;;;4.13;2.88;;;;;;;;;;4935489;29;20109;-58
2021/07/26 14:15:28;;;;;;;5.63;2.80;;;;;;;;;;4935738;28;20052;-58
2021/07/26 14:17:57;;;;;;;3.92;2.95;;;;;;;;;;4937294;28;20430;-59
2021/07/26 14:20:27;;;;;;;3.75;3.03;;;;;;;;;;4933084;29;20499;-58
2021/07/26 14:22:55;;;;;;;5.00;2.95;;;;;;;;;;4940412;29;20166;-58
2021/07/26 14:25:25;;;;;;;3.60;2.67;;;;;;;;;;4942564;29;20603;-58
2021/07/26 14:27:54;;;;;;;4.07;2.67;;;;;;;;;;4941425;29;20047;-58
2021/07/26 14:30:28;;;;;;;5.30;2.53;;;;;;;;;;4944397;28;20125;-58
2021/07/26 14:32:57;;;;;;;4.78;2.92;;;;;;;;;;4951852;29;20070;-59
2021/07/26 14:35:25;;;;;;;4.90;3.35;;;;;;;;;;4950249;28;20137;-58
2021/07/26 14:37:54;;;;;;;6.25;2.97;;;;;;;;;;4952515;28;20145;-59
2021/07/26 14:40:23;;;;;;;4.72;3.03;;;;;;;;;;4947487;29;20275;-58
2021/07/26 14:42:53;;;;;;;5.82;2.88;;;;;;;;;;4940485;28;20051;-58
2021/07/26 14:45:21;;;;;;;4.50;2.80;;;;;;;;;;4948336;28;20130;-58
2021/07/26 14:47:50;;;;;;;3.78;2.92;;;;;;;;;;4946616;29;20106;-58
2021/07/26 14:50:19;;;;;;;4.15;2.80;;;;;;;;;;4949165;29;20117;-58
2021/07/26 14:52:47;;;;;;;4.75;2.60;;;;;;;;;;4949544;29;20055;-58
2021/07/26 14:55:16;;;;;;;3.55;2.50;;;;;;;;;;4948642;28;20093;-58
2021/07/26 14:57:45;;;;;;;4.00;2.78;;;;;;;;;;4948930;29;20051;-58
2021/07/26 15:00:16;;;;;;;5.57;3.33;;;;;;;;;;4944676;29;20098;-58